Latest Coastal Weather Observations for Coles Point

IDS60701

Issued at 7:13 pm CDT Sunday 1 February 2015 (issued every 10 minutes, with the page automatically refreshed every 10 minutes)

About coastal observations | Map of coastal stations | Coastal observations for SA | Marine services | Other Formats
Station Details ID: 018191 Name: COLES POINT Lat: -34.37 Lon: 135.37 Height: 28.0 m
Data from the previous 72 hours. | See also: Recent months at Coles Point
Date/Time
CDT
Temp

°C
Wind Pressure Rain
since 9am
mm
Weather Cloud Vis
km
Sea
Height
m
Swell
Dir
 
Speed
knots
Gust
knots
hPa Trend Height
m
Period
s
Dir
01/07:00pm 18.5 S 15 20 1020.7 - 0.0 - - - - - - -
01/06:30pm 18.8 S 18 23 1020.7 - 0.0 - - - - - - -
01/06:00pm 19.3 S 18 23 1020.6 - 0.0 - - - - - - -
01/05:30pm 19.2 S 18 23 1020.5 - 0.0 - - - - - - -
01/05:00pm 20.2 S 20 26 1020.4 - 0.0 - - - - - - -
01/04:30pm 20.5 SSW 17 24 1020.4 - 0.0 - - - - - - -
01/04:00pm 20.4 S 16 21 1020.3 - 0.0 - - - - - - -
01/03:30pm 21.7 SSW 17 24 1020.4 - 0.0 - - - - - - -
01/03:00pm 21.2 S 18 25 1020.3 - 0.0 - - - - - - -
01/02:30pm 21.7 SSW 17 22 1020.4 - 0.0 - - - - - - -
01/02:00pm 21.0 SSW 17 24 1020.4 - 0.0 - - - - - - -
01/01:30pm 19.8 S 13 19 1020.7 - 0.0 - - - - - - -
01/01:00pm 19.4 SSE 12 19 1020.9 - 0.0 - - - - - - -
01/12:30pm 18.2 S 11 15 1021.2 - 0.0 - - - - - - -
01/12:00pm 17.9 SSE 14 19 1021.2 - 0.0 - - - - - - -
01/11:30am 18.4 SE 13 19 1021.0 - 0.0 - - - - - - -
01/11:00am 17.9 SE 12 17 1021.0 - 0.0 - - - - - - -
01/10:30am 17.3 SE 13 17 1021.0 - 0.0 - - - - - - -
01/10:00am 17.1 SSE 12 16 1020.8 - 0.0 - - - - - - -
01/09:30am 16.9 SSE 11 16 1020.7 - 0.0 - - - - - - -
01/09:00am 16.3 SE 9 12 1020.3 - 0.0 - - - - - - -
01/08:30am 15.1 SSE 10 15 1020.0 - 0.0 - - - - - - -
01/08:00am 15.1 SSE 11 15 1019.4 - 0.0 - - - - - - -
01/07:30am 14.5 SE 7 10 1019.0 - 0.0 - - - - - - -
01/07:00am 14.7 SE 9 13 1018.7 - 0.0 - - - - - - -
01/06:30am 14.6 SE 9 12 1018.4 - 0.0 - - - - - - -
01/06:00am 15.1 SE 8 11 1018.1 - 0.0 - - - - - - -
01/05:30am 14.9 SSE 10 16 1017.9 - 0.0 - - - - - - -
01/05:00am 15.2 SSE 11 15 1017.7 - 0.0 - - - - - - -
01/04:30am 15.7 SSE 12 17 1017.5 - 0.0 - - - - - - -
01/04:00am 15.8 SE 15 22 1017.6 - 0.0 - - - - - - -
01/03:30am 16.6 SSE 15 20 1017.7 - 0.0 - - - - - - -
01/03:00am 16.9 SSE 13 17 1017.9 - 0.0 - - - - - - -
01/02:30am 16.8 SE 13 19 1017.9 - 0.0 - - - - - - -
01/02:00am 16.9 SSE 12 16 1018.2 - 0.0 - - - - - - -
01/01:30am 16.8 SE 15 21 1018.5 - 0.0 - - - - - - -
01/01:00am 17.0 SSE 12 17 1018.6 - 0.0 - - - - - - -
01/12:30am 15.9 SSE 7 8 1018.7 - 0.0 - - - - - - -
01/12:00am 14.1 SE 6 7 1018.9 - 0.0 - - - - - - -
 
Date/Time
CDT
Temp

°C
Wind Pressure Rain
since 9am
mm
Weather Cloud Vis
km
Sea
Height
m
Swell
Dir
 
Speed
knots
Gust
knots
hPa Trend Height
m
Period
s
Dir
31/11:30pm 14.8 SE 6 7 1019.1 - 0.0 - - - - - - -
31/11:00pm 15.3 SE 7 9 1019.0 - 0.0 - - - - - - -
31/10:30pm 15.7 SSE 7 9 1018.9 - 0.0 - - - - - - -
31/10:00pm 16.2 SSE 9 11 1018.6 - 0.0 - - - - - - -
31/09:30pm 16.7 SSE 12 15 1018.4 - 0.0 - - - - - - -
31/09:00pm 17.3 SE 11 15 1017.9 - 0.0 - - - - - - -
31/08:30pm 18.2 SSE 14 18 1017.5 - 0.0 - - - - - - -
31/08:00pm 19.1 SSE 16 20 1017.0 - 0.0 - - - - - - -
31/07:30pm 20.0 SE 14 18 1016.7 - 0.0 - - - - - - -
31/07:00pm 20.3 SE 16 21 1016.4 - 0.0 - - - - - - -
31/06:30pm 21.7 SSE 14 19 1016.2 - 0.0 - - - - - - -
31/06:00pm 22.2 S 16 22 1016.1 - 0.0 - - - - - - -
31/05:30pm 21.3 S 20 27 1016.1 - 0.0 - - - - - - -
31/05:05pm 21.9 S 19 35 1016.1 - 0.0 - - - - - - -
31/05:00pm 21.8 S 19 25 1016.2 - 0.0 - - - - - - -
31/04:30pm 22.5 SSE 16 25 1016.4 - 0.0 - - - - - - -
31/04:27pm 22.9 SSE 15 25 1016.4 - 0.0 - - - - - - -
31/04:00pm 22.1 S 20 28 1016.3 - 0.0 - - - - - - -
31/03:30pm 22.6 S 18 24 1016.2 - 0.0 - - - - - - -
31/03:00pm 23.9 SE 12 20 1016.3 - 0.0 - - - - - - -
31/02:30pm 22.8 SE 11 20 1016.5 - 0.0 - - - - - - -
31/02:00pm 23.5 SE 11 18 1016.5 - 0.0 - - - - - - -
31/01:30pm 23.1 ESE 12 23 1016.7 - 0.0 - - - - - - -
31/01:00pm 22.4 SE 12 19 1016.7 - 0.0 - - - - - - -
31/12:30pm 22.2 ESE 12 21 1016.9 - 0.0 - - - - - - -
31/12:00pm 22.8 ESE 12 23 1016.8 - 0.0 - - - - - - -
31/11:30am 21.4 ESE 13 19 1017.1 - 0.0 - - - - - - -
31/11:00am 21.5 SE 15 21 1016.8 - 0.0 - - - - - - -
31/10:30am 21.1 ESE 13 20 1016.9 - 0.0 - - - - - - -
31/10:00am 20.8 ESE 14 22 1016.8 - 0.0 - - - - - - -
31/09:30am 20.1 ESE 15 22 1016.9 - 0.0 - - - - - - -
31/09:00am 18.8 ESE 17 23 1016.5 - 0.0 - - - - - - -
31/08:30am 17.9 SE 13 20 1016.7 - 0.0 - - - - - - -
31/08:00am 16.3 SSE 6 12 1016.5 - 0.0 - - - - - - -
31/07:30am 14.0 SSE 7 8 1015.9 - 0.0 - - - - - - -
31/07:00am 12.9 SSE 7 9 1015.9 - 0.0 - - - - - - -
31/06:30am 12.6 SSE 5 6 1015.8 - 0.0 - - - - - - -
31/06:00am 12.8 SSE 6 8 1015.5 - 0.0 - - - - - - -
31/05:30am 13.8 SSE 7 10 1015.2 - 0.0 - - - - - - -
31/05:00am 14.1 SSE 8 10 1015.0 - 0.0 - - - - - - -
31/04:30am 14.3 SE 9 14 1015.0 - 0.0 - - - - - - -
31/04:00am 14.4 SE 9 11 1015.1 - 0.0 - - - - - - -
31/03:30am 14.4 SE 7 11 1015.0 - 0.0 - - - - - - -
31/03:00am 14.5 SSE 8 9 1015.0 - 0.0 - - - - - - -
31/02:30am 14.7 SSE 9 12 1015.1 - 0.0 - - - - - - -
31/02:00am 14.9 SSE 7 11 1015.6 - 0.0 - - - - - - -
31/01:30am 15.5 SE 9 13 1015.6 - 0.0 - - - - - - -
31/01:00am 15.6 SE 9 14 1015.6 - 0.0 - - - - - - -
31/12:30am 15.8 SE 10 14 1015.7 - 0.0 - - - - - - -
31/12:00am 16.1 SSE 11 14 1015.7 - 0.0 - - - - - - -
 
Date/Time
CDT
Temp

°C
Wind Pressure Rain
since 9am
mm
Weather Cloud Vis
km
Sea
Height
m
Swell
Dir
 
Speed
knots
Gust
knots
hPa Trend Height
m
Period
s
Dir
30/11:30pm 16.3 SSE 12 16 1015.8 - 0.0 - - - - - - -
30/11:00pm 16.6 SE 10 14 1015.8 - 0.0 - - - - - - -
30/10:30pm 16.9 SE 11 16 1015.7 - 0.0 - - - - - - -
30/10:00pm 17.2 SE 12 17 1015.6 - 0.0 - - - - - - -
30/09:30pm 17.9 SE 12 18 1015.5 - 0.0 - - - - - - -
30/09:00pm 18.9 SSE 12 15 1015.3 - 0.0 - - - - - - -
30/08:30pm 20.3 SE 14 17 1015.0 - 0.0 - - - - - - -
30/08:00pm 22.5 SE 13 17 1014.7 - 0.0 - - - - - - -
30/07:30pm 24.0 ESE 12 18 1014.3 - 0.0 - - - - - - -
30/07:00pm 24.9 ESE 13 18 1013.8 - 0.0 - - - - - - -
30/06:30pm 25.6 ESE 14 18 1013.8 - 0.0 - - - - - - -
30/06:00pm 26.7 SE 12 17 1013.6 - 0.0 - - - - - - -
30/05:30pm 27.1 SE 11 17 1013.7 - 0.0 - - - - - - -
30/05:00pm 27.5 SE 12 19 1013.9 - 0.0 - - - - - - -
30/04:30pm 28.6 ESE 11 18 1014.0 - 0.0 - - - - - - -
30/04:00pm 27.9 SE 12 17 1013.9 - 0.0 - - - - - - -
30/03:30pm 27.9 SE 11 21 1013.9 - 0.0 - - - - - - -
30/03:00pm 28.2 SE 12 18 1014.1 - 0.0 - - - - - - -
30/02:30pm 28.1 SE 10 14 1014.4 - 0.0 - - - - - - -
30/02:00pm 28.2 E 11 17 1014.4 - 0.0 - - - - - - -
30/01:30pm 28.1 E 8 15 1014.6 - 0.0 - - - - - - -
30/01:00pm 27.1 E 8 14 1014.8 - 0.0 - - - - - - -
30/12:30pm 28.0 ESE 9 14 1015.0 - 0.0 - - - - - - -
30/12:00pm 27.1 E 8 15 1015.2 - 0.0 - - - - - - -
30/11:30am 26.7 E 11 15 1015.2 - 0.0 - - - - - - -
30/11:00am 25.3 E 11 15 1015.3 - 0.0 - - - - - - -
30/10:30am 25.1 ENE 12 18 1015.5 - 0.0 - - - - - - -
30/10:00am 24.2 E 11 15 1015.8 - 0.0 - - - - - - -
30/09:30am 22.7 ESE 9 13 1015.9 - 0.0 - - - - - - -
30/09:00am 21.5 E 9 13 1016.0 - 0.0 - - - - - - -
30/08:30am 20.1 E 2 4 1016.0 - 0.0 - - - - - - -
30/08:00am 19.1 SE 2 4 1015.8 - 0.0 - - - - - - -
30/07:30am 17.8 ESE 5 8 1015.5 - 0.0 - - - - - - -
30/07:00am 16.8 SE 5 7 1015.3 - 0.0 - - - - - - -
30/06:30am 16.6 ESE 5 9 1015.2 - 0.0 - - - - - - -
30/06:00am 16.6 SE 6 8 1014.8 - 0.0 - - - - - - -
30/05:30am 16.7 SE 6 8 1014.6 - 0.0 - - - - - - -
30/05:00am 14.5 ESE 2 2 1014.5 - 0.0 - - - - - - -
30/04:30am 16.2 E 7 9 1014.5 - 0.0 - - - - - - -
30/04:00am 16.6 ESE 9 11 1014.4 - 0.0 - - - - - - -
30/03:30am 16.6 ESE 5 10 1014.6 - 0.0 - - - - - - -
30/03:00am 15.5 CALM 0 0 1014.9 - 0.0 - - - - - - -
30/02:30am 16.6 ESE 5 8 1015.2 - 0.0 - - - - - - -
30/02:00am 17.0 E 7 10 1015.2 - 0.0 - - - - - - -
30/01:30am 17.2 ENE 4 8 1015.4 - 0.0 - - - - - - -
30/01:00am 17.9 ESE 11 17 1015.3 - 0.0 - - - - - - -
30/12:30am 18.3 ESE 11 15 1015.3 - 0.0 - - - - - - -
30/12:00am 18.5 ESE 10 15 1015.4 - 0.0 - - - - - - -
 
Date/Time
CDT
Temp

°C
Wind Pressure Rain
since 9am
mm
Weather Cloud Vis
km
Sea
Height
m
Swell
Dir
 
Speed
knots
Gust
knots
hPa Trend Height
m
Period
s
Dir
29/11:30pm 19.0 SE 11 15 1015.5 - 0.0 - - - - - - -
29/11:00pm 19.1 SE 8 12 1015.7 - 0.0 - - - - - - -
29/10:30pm 19.2 SSE 3 6 1015.9 - 0.0 - - - - - - -
29/10:00pm 20.4 SE 11 14 1015.6 - 0.0 - - - - - - -
29/09:30pm 21.1 SE 12 16 1015.5 - 0.0 - - - - - - -
29/09:00pm 21.1 SE 9 11 1015.4 - 0.0 - - - - - - -
29/08:30pm 22.7 ESE 10 13 1015.2 - 0.0 - - - - - - -
29/08:00pm 24.1 ESE 13 16 1015.1 - 0.0 - - - - - - -
29/07:30pm 25.3 ESE 12 17 1014.9 - 0.0 - - - - - - -

Other Formats:

Comma delimited format used in spreadsheet applications
http://www.bom.gov.au/fwo/IDS60701/IDS60701.94658.axf

JavaScript Object Notation format (JSON) in row-major order
http://www.bom.gov.au/fwo/IDS60701/IDS60701.94658.json